Time;durP1;ratioP1;P1;durP2;ratioP2;P2;SDS_P1;SDS_P2;PMS_P1;PMS_P2;Temp;Humidity;BMP_temperature;BMP_pressure;BME280_temperature;BME280_humidity;BME280_pressure;Samples;Min_cycle;Max_cycle;Signal;HPM_P1;HPM_P2
2021/12/11 00:01:29;;;;;;;9.60;6.35;;;17.70;49.10;;;;;;5025125;28;20022;-66
2021/12/11 00:03:59;;;;;;;8.40;6.32;;;17.70;49.20;;;;;;5025390;28;20044;-68
2021/12/11 00:06:27;;;;;;;7.00;5.72;;;17.70;49.10;;;;;;5028399;28;20025;-67
2021/12/11 00:08:54;;;;;;;7.95;6.22;;;17.70;49.20;;;;;;5041903;28;20027;-66
2021/12/11 00:11:27;;;;;;;7.82;6.10;;;17.60;49.20;;;;;;5045340;28;20029;-66
2021/12/11 00:13:54;;;;;;;7.47;6.15;;;17.60;49.10;;;;;;5036710;28;20445;-65
2021/12/11 00:16:21;;;;;;;6.90;5.75;;;17.60;49.10;;;;;;5041344;28;20032;-65
2021/12/11 00:18:50;;;;;;;6.28;4.88;;;17.60;49.20;;;;;;5035171;28;20059;-66
2021/12/11 00:21:17;;;;;;;8.07;6.45;;;17.60;49.20;;;;;;5037237;28;20641;-66
2021/12/11 00:24:05;;;;;;;7.25;5.88;;;17.60;49.10;;;;;;5044786;28;20021;-67
2021/12/11 00:26:34;;;;;;;7.50;5.70;;;17.60;49.20;;;;;;5048025;28;20104;-65
2021/12/11 00:28:59;;;;;;;8.23;6.10;;;17.50;49.20;;;;;;5028423;28;20037;-66
2021/12/11 00:31:27;;;;;;;7.25;5.63;;;17.50;49.30;;;;;;5028092;28;20435;-65
2021/12/11 00:33:52;;;;;;;6.13;5.45;;;17.50;49.40;;;;;;5028031;28;20025;-65
2021/12/11 00:36:20;;;;;;;6.53;5.47;;;17.50;49.60;;;;;;5047556;28;20107;-65
2021/12/11 00:38:48;;;;;;;7.95;6.18;;;17.50;49.50;;;;;;5037902;28;20036;-66
2021/12/11 00:41:14;;;;;;;7.63;5.32;;;17.50;49.50;;;;;;5036500;28;20037;-65
2021/12/11 00:43:41;;;;;;;5.88;4.95;;;17.50;49.50;;;;;;5030089;28;20067;-66
2021/12/11 00:46:08;;;;;;;6.70;5.18;;;17.40;49.50;;;;;;5047347;28;20571;-65
2021/12/11 00:48:34;;;;;;;7.10;5.30;;;17.40;50.10;;;;;;5038234;28;20028;-65
2021/12/11 00:51:08;;;;;;;6.47;4.88;;;17.50;49.60;;;;;;5047680;28;20029;-66
2021/12/11 00:53:39;;;;;;;5.75;4.85;;;17.40;49.70;;;;;;5047722;28;20028;-66
2021/12/11 00:56:08;;;;;;;6.22;5.07;;;17.40;49.50;;;;;;5043283;28;20022;-66
2021/12/11 00:58:35;;;;;;;5.57;4.47;;;17.40;49.50;;;;;;5029571;28;20554;-66
2021/12/11 01:01:07;;;;;;;4.97;4.32;;;17.40;50.20;;;;;;5046477;28;20107;-66
2021/12/11 01:03:40;;;;;;;5.90;4.85;;;17.40;49.60;;;;;;5042517;28;20021;-66
2021/12/11 01:06:12;;;;;;;6.68;4.68;;;17.50;49.70;;;;;;5031125;28;20485;-66
2021/12/11 01:08:47;;;;;;;4.97;4.47;;;17.40;49.50;;;;;;5045716;28;20116;-66
2021/12/11 01:11:16;;;;;;;6.35;4.50;;;17.40;49.50;;;;;;5035823;28;20057;-66
2021/12/11 01:13:48;;;;;;;5.93;4.93;;;17.40;49.60;;;;;;5035685;28;20397;-65
2021/12/11 01:16:15;;;;;;;7.18;5.07;;;17.40;49.60;;;;;;5038565;28;20113;-66
2021/12/11 01:18:44;;;;;;;5.10;4.60;;;17.40;49.50;;;;;;5046347;28;20413;-65
2021/12/11 01:24:13;;;;;;;5.70;3.90;;;17.40;49.60;;;;;;5033461;28;20087;-65
2021/12/11 01:26:45;;;;;;;5.28;4.30;;;17.40;49.50;;;;;;5034067;28;20013;-65
2021/12/11 01:29:11;;;;;;;5.05;4.28;;;17.40;49.60;;;;;;5032286;28;20527;-65
2021/12/11 01:31:37;;;;;;;5.50;4.13;;;17.40;49.50;;;;;;5045237;28;20036;-65
2021/12/11 01:34:02;;;;;;;4.57;4.18;;;17.40;49.50;;;;;;5030320;28;20064;-65
2021/12/11 01:36:28;;;;;;;7.10;5.03;;;17.40;49.50;;;;;;5026497;28;20045;-65
2021/12/11 01:38:58;;;;;;;5.30;4.28;;;17.40;49.40;;;;;;5026577;28;20038;-66
2021/12/11 01:41:24;;;;;;;4.13;3.72;;;17.40;50.10;;;;;;5025055;28;20803;-66
2021/12/11 01:43:52;;;;;;;6.13;4.10;;;17.40;49.50;;;;;;5026628;28;20108;-66
2021/12/11 01:46:21;;;;;;;4.68;3.88;;;17.40;49.60;;;;;;5035156;28;20048;-63
2021/12/11 01:48:48;;;;;;;4.90;3.70;;;17.40;49.50;;;;;;5037167;28;20021;-66
2021/12/11 01:51:52;;;;;;;4.30;3.90;;;17.40;49.40;;;;;;5026672;28;20022;-65
2021/12/11 01:54:21;;;;;;;5.10;4.13;;;17.40;49.40;;;;;;5026389;28;20039;-66
2021/12/11 01:56:49;;;;;;;5.03;3.95;;;17.40;49.40;;;;;;5026061;28;20032;-65
2021/12/11 01:59:24;;;;;;;3.95;3.55;;;17.30;49.30;;;;;;5025881;28;20487;-65
2021/12/11 02:01:55;;;;;;;3.72;3.35;;;17.30;49.30;;;;;;5030599;28;20024;-65
2021/12/11 02:04:23;;;;;;;5.32;3.67;;;17.30;49.30;;;;;;5029200;28;20591;-66
2021/12/11 02:06:50;;;;;;;4.30;3.88;;;17.30;49.20;;;;;;5025696;28;20028;-65
2021/12/11 02:09:19;;;;;;;4.18;3.63;;;17.30;49.20;;;;;;5025889;28;20013;-64
2021/12/11 02:11:51;;;;;;;3.90;3.38;;;17.30;49.30;;;;;;5025627;28;20567;-65
2021/12/11 02:14:22;;;;;;;3.80;3.38;;;17.30;49.20;;;;;;5026192;28;20039;-65
2021/12/11 02:16:48;;;;;;;5.65;3.63;;;17.40;49.20;;;;;;5025814;28;20555;-65
2021/12/11 02:19:23;;;;;;;3.90;3.25;;;17.30;49.10;;;;;;5025880;28;20026;-65
2021/12/11 02:22:07;;;;;;;4.43;3.70;;;17.30;49.10;;;;;;5025539;28;20539;-66
2021/12/11 02:25:00;;;;;;;4.68;3.35;;;17.30;49.30;;;;;;5044339;28;20025;-66
2021/12/11 02:27:31;;;;;;;5.20;3.60;;;17.30;49.10;;;;;;5033762;28;20029;-66
2021/12/11 02:30:18;;;;;;;5.10;2.95;;;17.30;49.20;;;;;;5027227;28;20108;-63
2021/12/11 02:32:48;;;;;;;3.58;3.03;;;17.20;49.00;;;;;;5025568;28;20799;-65
2021/12/11 02:35:32;;;;;;;3.90;3.22;;;17.20;49.00;;;;;;5023673;28;20060;-62
2021/12/11 02:38:15;;;;;;;4.03;3.22;;;17.20;49.00;;;;;;5028996;28;20025;-66
2021/12/11 02:41:03;;;;;;;5.18;3.80;;;17.10;49.00;;;;;;5024198;28;20032;-65
2021/12/11 02:43:37;;;;;;;4.40;2.90;;;17.10;49.00;;;;;;5038370;28;20036;-65
2021/12/11 02:46:07;;;;;;;3.65;3.20;;;17.20;49.10;;;;;;5045294;28;20409;-65
2021/12/11 02:48:49;;;;;;;4.60;3.20;;;17.10;49.00;;;;;;5041862;28;20071;-63
2021/12/11 02:51:25;;;;;;;3.55;3.22;;;17.20;48.90;;;;;;5034314;28;20030;-64
2021/12/11 02:54:04;;;;;;;4.03;3.28;;;17.20;48.80;;;;;;5036934;28;20058;-66
2021/12/11 02:56:32;;;;;;;4.47;3.08;;;17.30;48.70;;;;;;5038297;28;20660;-64
2021/12/11 02:59:01;;;;;;;3.20;2.90;;;17.40;48.50;;;;;;5024908;28;20047;-63
2021/12/11 03:01:35;;;;;;;3.50;3.20;;;17.50;48.60;;;;;;5033727;28;20094;-66
2021/12/11 03:04:10;;;;;;;4.30;3.10;;;17.40;48.60;;;;;;5032735;28;20041;-66
2021/12/11 03:06:41;;;;;;;3.28;2.97;;;17.40;48.60;;;;;;5026218;28;20025;-66
2021/12/11 03:09:07;;;;;;;3.88;3.30;;;17.40;48.60;;;;;;5033589;28;20017;-65
2021/12/11 03:11:33;;;;;;;4.75;3.38;;;17.40;48.70;;;;;;5025023;28;20029;-64
2021/12/11 03:13:58;;;;;;;3.35;3.03;;;17.40;48.70;;;;;;5026801;28;20026;-64
2021/12/11 03:16:26;;;;;;;3.35;3.05;;;17.50;48.70;;;;;;5040153;28;20532;-63
2021/12/11 03:18:52;;;;;;;2.90;2.53;;;17.40;48.60;;;;;;5029084;28;20617;-64
2021/12/11 03:21:18;;;;;;;3.05;2.55;;;17.40;48.70;;;;;;5037683;28;20029;-66
2021/12/11 03:23:43;;;;;;;3.08;2.78;;;17.40;48.80;;;;;;5045016;28;20017;-65
2021/12/11 03:26:09;;;;;;;3.47;3.03;;;17.40;48.80;;;;;;5045220;28;20029;-65
2021/12/11 03:28:34;;;;;;;3.08;2.78;;;17.40;48.80;;;;;;5044673;28;20831;-63
2021/12/11 03:31:00;;;;;;;3.20;2.90;;;17.40;48.70;;;;;;5043480;28;20075;-65
2021/12/11 03:33:32;;;;;;;3.45;2.80;;;17.50;48.70;;;;;;5042478;28;20578;-64
2021/12/11 03:35:57;;;;;;;3.83;3.08;;;17.50;48.70;;;;;;5025754;28;20112;-66
2021/12/11 03:38:24;;;;;;;2.85;2.50;;;17.40;48.70;;;;;;5041049;28;20037;-65
2021/12/11 03:40:49;;;;;;;3.00;2.70;;;17.50;48.60;;;;;;5047252;28;20047;-66
2021/12/11 03:43:18;;;;;;;3.42;3.03;;;17.50;48.60;;;;;;5036279;28;20033;-66
2021/12/11 03:45:45;;;;;;;3.30;2.58;;;17.50;48.60;;;;;;5034749;28;20021;-64
2021/12/11 03:48:16;;;;;;;2.47;2.28;;;17.40;49.20;;;;;;5048482;28;20097;-66
2021/12/11 03:50:42;;;;;;;3.00;2.70;;;17.50;48.60;;;;;;5047789;28;20021;-65
2021/12/11 03:53:08;;;;;;;2.90;2.30;;;17.50;48.60;;;;;;5032690;28;20044;-66
2021/12/11 03:55:41;;;;;;;2.85;2.55;;;17.50;48.50;;;;;;5027147;28;20107;-65
2021/12/11 03:58:07;;;;;;;4.93;2.92;;;17.50;48.50;;;;;;5028025;28;20057;-64
2021/12/11 04:00:39;;;;;;;5.30;2.78;;;17.50;48.50;;;;;;5047737;28;20659;-65
2021/12/11 04:03:06;;;;;;;2.90;2.40;;;17.50;48.60;;;;;;5047927;28;20028;-66
2021/12/11 04:05:33;;;;;;;2.88;2.50;;;17.50;48.40;;;;;;5035303;28;20041;-65
2021/12/11 04:07:59;;;;;;;3.15;2.85;;;17.50;48.40;;;;;;5026790;28;20021;-65
2021/12/11 04:10:27;;;;;;;4.18;2.80;;;17.50;48.50;;;;;;5032233;28;20413;-65
2021/12/11 04:12:54;;;;;;;3.55;2.85;;;17.50;48.40;;;;;;5041257;28;20045;-65
2021/12/11 04:15:19;;;;;;;3.47;2.63;;;17.50;48.30;;;;;;5028677;28;20033;-65
2021/12/11 04:17:45;;;;;;;2.80;2.58;;;17.50;48.30;;;;;;5028081;28;20028;-65
2021/12/11 04:20:15;;;;;;;3.03;2.45;;;17.50;48.40;;;;;;5027702;28;20034;-66
2021/12/11 04:22:42;;;;;;;3.20;2.83;;;17.50;48.40;;;;;;5043223;28;20485;-66
2021/12/11 04:25:08;;;;;;;4.38;2.65;;;17.50;48.40;;;;;;5043418;28;20587;-65
2021/12/11 04:27:33;;;;;;;3.28;2.40;;;17.50;48.30;;;;;;5028098;28;20072;-65
2021/12/11 04:29:59;;;;;;;3.42;2.83;;;17.50;48.30;;;;;;5027923;28;20029;-65
2021/12/11 04:32:25;;;;;;;3.47;2.95;;;17.50;48.30;;;;;;5027780;28;20026;-63
2021/12/11 04:34:51;;;;;;;2.88;2.33;;;17.50;48.20;;;;;;5027802;28;20029;-63
2021/12/11 04:37:20;;;;;;;2.80;2.45;;;17.50;48.20;;;;;;5027857;28;20034;-65
2021/12/11 04:39:51;;;;;;;3.67;2.47;;;17.50;48.30;;;;;;5026985;28;20478;-65
2021/12/11 04:42:35;;;;;;;3.40;2.60;;;17.50;48.30;;;;;;5027880;28;20021;-66
2021/12/11 04:45:00;;;;;;;3.10;2.63;;;17.50;48.30;;;;;;5044264;28;20017;-66
2021/12/11 04:47:35;;;;;;;3.20;2.78;;;17.50;48.30;;;;;;5047015;28;20021;-65
2021/12/11 04:50:06;;;;;;;3.63;2.63;;;17.50;48.10;;;;;;5047429;28;20036;-65
2021/12/11 04:52:52;;;;;;;3.22;2.60;;;17.50;48.10;;;;;;5045315;28;20098;-65
2021/12/11 04:58:27;;;;;;;3.05;2.50;;;17.50;48.00;;;;;;5031723;28;20095;-65
2021/12/11 05:01:14;;;;;;;3.13;2.60;;;17.50;48.00;;;;;;5036378;28;20045;-66
2021/12/11 05:04:09;;;;;;;2.88;2.58;;;17.50;48.10;;;;;;5041208;28;20024;-65
2021/12/11 05:09:31;;;;;;;5.15;2.25;;;17.50;48.10;;;;;;5032003;28;20167;-65
2021/12/11 05:12:11;;;;;;;2.58;2.20;;;17.50;48.10;;;;;;5070985;22;20041;-66
2021/12/11 05:14:37;;;;;;;2.47;2.17;;;17.50;48.20;;;;;;5043507;28;20104;-66
2021/12/11 05:17:04;;;;;;;3.40;2.30;;;17.50;48.20;;;;;;5027606;28;20100;-66
2021/12/11 05:19:29;;;;;;;2.85;2.53;;;17.50;48.30;;;;;;5045245;28;20036;-66
2021/12/11 05:21:55;;;;;;;3.13;2.40;;;17.50;48.20;;;;;;5044790;28;20017;-66
2021/12/11 05:24:20;;;;;;;3.25;2.67;;;17.50;48.30;;;;;;5024239;28;20653;-66
2021/12/11 05:26:46;;;;;;;2.95;2.50;;;17.50;48.30;;;;;;5038970;28;20021;-65
2021/12/11 05:29:11;;;;;;;2.60;2.40;;;17.50;48.30;;;;;;5028129;28;20058;-64
2021/12/11 05:31:37;;;;;;;3.40;2.65;;;17.50;48.30;;;;;;5009653;28;20172;-65
2021/12/11 05:34:03;;;;;;;2.70;2.50;;;17.50;48.30;;;;;;5045525;28;20032;-63
2021/12/11 05:36:31;;;;;;;3.22;2.67;;;17.50;48.20;;;;;;5027248;28;20576;-64
2021/12/11 05:38:57;;;;;;;4.10;2.60;;;17.50;48.20;;;;;;5044717;28;20048;-65
2021/12/11 05:41:22;;;;;;;2.67;2.47;;;17.50;48.30;;;;;;5045722;28;20052;-65
2021/12/11 05:43:48;;;;;;;3.20;2.20;;;17.50;48.30;;;;;;5045052;28;20037;-65
2021/12/11 05:46:14;;;;;;;2.63;2.40;;;17.50;48.20;;;;;;5043927;28;20036;-63
2021/12/11 05:48:40;;;;;;;3.67;2.70;;;17.50;48.20;;;;;;5044518;28;20492;-65
2021/12/11 05:51:06;;;;;;;4.47;2.72;;;17.50;48.20;;;;;;5045988;28;20038;-63
2021/12/11 05:53:33;;;;;;;2.72;2.33;;;17.50;48.20;;;;;;5046175;28;20151;-63
2021/12/11 05:56:01;;;;;;;3.90;2.40;;;17.50;48.30;;;;;;5026956;28;20064;-65
2021/12/11 06:01:10;;;;;;;3.38;2.45;;;17.50;48.20;;;;;;5044517;28;20135;-65
2021/12/11 06:03:37;;;;;;;3.13;2.83;;;17.50;48.20;;;;;;5045475;28;20706;-65
2021/12/11 06:06:04;;;;;;;3.78;2.78;;;17.50;48.20;;;;;;5046038;28;20768;-66
2021/12/11 06:08:31;;;;;;;4.63;3.08;;;17.50;48.20;;;;;;5045407;28;20017;-64
2021/12/11 06:10:57;;;;;;;3.53;2.97;;;17.50;48.10;;;;;;5046064;28;20082;-66
2021/12/11 06:13:24;;;;;;;3.25;2.95;;;17.50;48.20;;;;;;5045540;28;20029;-65
2021/12/11 06:15:51;;;;;;;3.20;2.88;;;17.50;48.10;;;;;;5044185;28;20025;-64
2021/12/11 06:18:18;;;;;;;3.15;2.83;;;17.50;48.10;;;;;;5045449;28;20025;-65
2021/12/11 06:20:44;;;;;;;4.13;3.25;;;17.50;48.00;;;;;;5045540;28;20029;-65
2021/12/11 06:23:10;;;;;;;3.95;3.30;;;17.50;47.90;;;;;;5045165;28;20021;-64
2021/12/11 06:25:35;;;;;;;4.30;3.38;;;17.50;47.90;;;;;;5045563;28;20512;-64
2021/12/11 06:28:02;;;;;;;4.70;2.90;;;17.50;47.80;;;;;;5045388;28;20028;-62
2021/12/11 06:30:28;;;;;;;4.15;3.22;;;17.50;47.80;;;;;;5044969;28;20028;-64
2021/12/11 06:32:54;;;;;;;3.88;2.85;;;17.50;47.70;;;;;;5041464;28;20029;-64
2021/12/11 06:35:21;;;;;;;4.03;3.20;;;17.50;47.70;;;;;;5043714;28;20497;-64
2021/12/11 06:37:47;;;;;;;4.13;2.80;;;17.50;47.60;;;;;;5043305;28;20600;-66
2021/12/11 06:40:12;;;;;;;5.50;3.70;;;17.50;47.60;;;;;;5043340;28;20120;-66
2021/12/11 06:42:38;;;;;;;4.35;3.45;;;17.60;47.50;;;;;;5042892;28;20304;-64
2021/12/11 06:45:04;;;;;;;3.92;3.25;;;17.60;47.50;;;;;;5044349;28;20032;-66
2021/12/11 06:47:31;;;;;;;3.63;3.00;;;17.60;47.40;;;;;;5044745;28;20501;-65
2021/12/11 06:49:56;;;;;;;4.75;3.97;;;17.60;47.40;;;;;;5043817;28;20078;-64
2021/12/11 06:52:23;;;;;;;7.07;3.60;;;17.60;47.20;;;;;;5043284;28;20044;-65
2021/12/11 06:54:48;;;;;;;4.15;2.65;;;17.60;47.20;;;;;;5043292;28;20112;-66
2021/12/11 06:57:14;;;;;;;4.00;3.20;;;17.50;47.10;;;;;;5042835;28;20040;-65
2021/12/11 06:59:39;;;;;;;3.70;3.30;;;17.50;47.20;;;;;;5042546;28;20406;-65
2021/12/11 07:02:05;;;;;;;4.50;3.42;;;17.50;47.10;;;;;;5042281;28;20055;-65
2021/12/11 07:04:31;;;;;;;4.97;3.17;;;17.60;47.10;;;;;;5041397;28;20029;-65
2021/12/11 07:06:57;;;;;;;4.25;3.45;;;17.60;47.00;;;;;;5041961;28;20524;-65
2021/12/11 07:09:24;;;;;;;4.75;3.95;;;17.50;47.10;;;;;;5042746;28;20065;-65
2021/12/11 07:11:51;;;;;;;3.53;3.00;;;17.50;47.10;;;;;;5042265;28;20083;-65
2021/12/11 07:14:17;;;;;;;4.20;3.40;;;17.60;46.90;;;;;;5043210;28;20567;-65
2021/12/11 07:16:43;;;;;;;5.50;4.57;;;17.60;47.10;;;;;;5046995;28;20053;-65
2021/12/11 07:19:08;;;;;;;5.80;4.28;;;17.50;47.00;;;;;;5045994;28;20053;-65
2021/12/11 07:21:34;;;;;;;5.18;4.00;;;17.50;47.10;;;;;;5046019;28;20029;-64
2021/12/11 07:24:00;;;;;;;5.10;3.45;;;17.50;47.20;;;;;;5045732;28;20024;-65
2021/12/11 07:26:32;;;;;;;5.70;4.03;;;17.50;47.20;;;;;;5046612;28;20049;-65
2021/12/11 07:29:04;;;;;;;5.25;3.60;;;17.50;47.30;;;;;;5046468;28;20061;-65
2021/12/11 07:31:30;;;;;;;3.95;3.35;;;17.40;47.30;;;;;;5045742;28;20040;-65
2021/12/11 07:33:55;;;;;;;3.85;3.33;;;17.40;47.50;;;;;;5046056;28;20432;-65
2021/12/11 07:36:21;;;;;;;5.10;3.58;;;17.40;47.50;;;;;;5045886;28;20057;-67
2021/12/11 07:38:47;;;;;;;4.88;3.95;;;17.40;47.60;;;;;;5045886;28;20043;-64
2021/12/11 07:41:12;;;;;;;4.97;3.67;;;17.40;47.60;;;;;;5044537;28;20544;-64
2021/12/11 07:43:39;;;;;;;13.82;4.70;;;17.40;47.80;;;;;;5028383;28;20056;-64
2021/12/11 07:46:05;;;;;;;8.48;4.70;;;17.40;47.80;;;;;;5045861;28;20677;-69
2021/12/11 07:48:30;;;;;;;8.80;4.85;;;17.40;48.20;;;;;;5044771;28;20045;-66
2021/12/11 07:50:56;;;;;;;9.13;5.13;;;17.40;49.10;;;;;;5045484;28;20405;-66
2021/12/11 07:53:22;;;;;;;5.63;3.85;;;17.40;48.60;;;;;;5044217;28;20198;-67
2021/12/11 07:55:47;;;;;;;13.02;5.30;;;17.40;48.70;;;;;;5045057;28;20108;-67
2021/12/11 07:58:13;;;;;;;9.50;4.95;;;17.40;48.80;;;;;;5045892;28;20112;-68
2021/12/11 08:00:40;;;;;;;6.93;4.75;;;17.40;48.90;;;;;;5027670;28;20057;-67
2021/12/11 08:03:05;;;;;;;8.45;4.55;;;17.40;48.90;;;;;;5044864;28;20063;-67
2021/12/11 08:05:31;;;;;;;11.57;4.68;;;17.40;48.90;;;;;;5045352;28;20513;-67
2021/12/11 08:08:01;;;;;;;8.23;4.50;;;17.40;48.90;;;;;;5044233;28;20163;-66
2021/12/11 08:10:28;;;;;;;6.78;4.50;;;17.40;48.90;;;;;;5042943;28;20036;-65
2021/12/11 08:12:53;;;;;;;11.45;4.50;;;17.40;49.00;;;;;;5045058;28;20033;-65
2021/12/11 08:15:19;;;;;;;9.38;5.00;;;17.30;49.10;;;;;;5037641;28;20025;-64
2021/12/11 08:17:51;;;;;;;8.75;5.40;;;17.40;49.30;;;;;;5044513;28;20021;-63
2021/12/11 08:20:17;;;;;;;10.70;4.85;;;17.40;49.30;;;;;;5045504;28;20595;-61
2021/12/11 08:22:42;;;;;;;11.80;5.35;;;17.40;49.30;;;;;;5045840;28;20029;-62
2021/12/11 08:25:08;;;;;;;8.68;5.07;;;17.40;49.20;;;;;;5045409;28;20024;-62
2021/12/11 08:27:33;;;;;;;9.38;5.15;;;17.40;49.20;;;;;;5043831;28;20033;-59
2021/12/11 08:29:59;;;;;;;14.90;6.25;;;17.40;49.10;;;;;;5043909;28;20044;-63
2021/12/11 08:32:25;;;;;;;6.18;5.50;;;17.40;49.10;;;;;;5045430;28;20021;-62
2021/12/11 08:34:51;;;;;;;8.48;5.45;;;17.40;48.90;;;;;;5045414;28;20036;-61
2021/12/11 08:37:17;;;;;;;9.35;5.70;;;17.40;48.90;;;;;;5045189;28;20763;-61
2021/12/11 08:39:42;;;;;;;9.82;6.03;;;17.40;48.80;;;;;;5045586;28;20037;-62
2021/12/11 08:42:09;;;;;;;6.78;5.22;;;17.40;48.70;;;;;;5044801;28;20033;-62
2021/12/11 08:44:38;;;;;;;9.50;5.93;;;17.40;48.60;;;;;;5045326;28;20029;-62
2021/12/11 08:47:07;;;;;;;10.52;6.35;;;17.50;48.60;;;;;;5045701;28;20025;-63
2021/12/11 08:49:33;;;;;;;10.60;6.15;;;17.50;48.50;;;;;;5045445;28;20041;-63
2021/12/11 08:52:09;;;;;;;12.38;6.13;;;17.50;48.40;;;;;;5047765;28;20108;-62
2021/12/11 08:54:35;;;;;;;9.82;6.10;;;17.50;48.40;;;;;;5048713;28;20090;-63
2021/12/11 08:57:04;;;;;;;10.60;6.10;;;17.40;48.30;;;;;;5049958;28;20029;-62
2021/12/11 08:59:29;;;;;;;9.18;5.45;;;17.50;48.30;;;;;;5049101;28;20044;-62
2021/12/11 09:02:04;;;;;;;10.95;6.72;;;17.50;48.30;;;;;;5047590;28;20029;-63
2021/12/11 09:04:48;;;;;;;11.82;6.38;;;17.50;48.30;;;;;;5049268;28;20404;-61
2021/12/11 09:07:17;;;;;;;10.77;6.38;;;17.50;48.20;;;;;;5046192;28;20055;-62
2021/12/11 09:09:49;;;;;;;9.43;6.65;;;17.50;48.20;;;;;;5043864;28;20088;-62
2021/12/11 09:12:17;;;;;;;9.68;6.38;;;17.50;48.20;;;;;;5044419;28;20501;-62
2021/12/11 09:14:51;;;;;;;9.95;6.90;;;17.50;48.10;;;;;;5043531;28;20025;-63
2021/12/11 09:17:26;;;;;;;10.18;6.47;;;17.50;48.10;;;;;;5044648;28;20037;-61
2021/12/11 09:20:07;;;;;;;12.18;7.30;;;17.50;48.10;;;;;;5045370;28;20052;-63
2021/12/11 09:22:36;;;;;;;10.43;6.82;;;17.50;48.10;;;;;;5042904;28;20027;-62
2021/12/11 09:25:18;;;;;;;9.88;7.45;;;17.50;48.10;;;;;;5044082;28;20511;-62
2021/12/11 09:27:48;;;;;;;10.48;7.55;;;17.50;48.10;;;;;;5044868;28;20041;-62
2021/12/11 09:30:15;;;;;;;10.15;6.45;;;17.50;48.10;;;;;;5044562;28;20587;-62
2021/12/11 09:32:48;;;;;;;8.10;6.57;;;17.50;48.10;;;;;;5045057;28;20033;-61
2021/12/11 09:35:21;;;;;;;9.43;7.28;;;17.50;48.10;;;;;;5045386;28;21384;-64
2021/12/11 09:37:47;;;;;;;9.63;7.03;;;17.50;48.20;;;;;;5044230;28;20036;-62
2021/12/11 09:40:33;;;;;;;11.70;6.75;;;17.50;48.30;;;;;;5044935;28;20072;-63
2021/12/11 09:42:59;;;;;;;9.57;6.45;;;17.40;48.30;;;;;;5045602;28;20029;-63
2021/12/11 09:45:26;;;;;;;13.05;7.78;;;17.40;48.40;;;;;;5045148;28;20120;-60
2021/12/11 09:47:56;;;;;;;19.33;11.20;;;17.50;48.40;;;;;;5044396;28;20082;-63
2021/12/11 09:50:25;;;;;;;32.42;16.67;;;17.50;49.00;;;;;;5043897;28;20041;-62
2021/12/11 09:52:51;;;;;;;27.45;15.13;;;17.50;49.60;;;;;;5043083;28;20033;-60
2021/12/11 09:55:26;;;;;;;32.25;17.58;;;17.50;49.70;;;;;;5044811;28;20033;-63
2021/12/11 09:57:55;;;;;;;35.10;16.73;;;17.40;49.60;;;;;;5042682;28;20116;-63
2021/12/11 10:00:43;;;;;;;29.13;17.25;;;17.40;49.60;;;;;;5045485;28;20036;-64
2021/12/11 10:03:09;;;;;;;29.90;15.77;;;17.30;50.50;;;;;;5044107;28;20091;-64
2021/12/11 10:05:49;;;;;;;30.30;15.63;;;17.30;50.90;;;;;;5045340;28;20108;-66
2021/12/11 10:08:29;;;;;;;29.35;15.40;;;17.30;51.10;;;;;;5042015;28;20730;-63
2021/12/11 10:11:22;;;;;;;31.58;15.13;;;17.20;51.40;;;;;;5038725;28;20639;-65
2021/12/11 10:13:58;;;;;;;29.05;13.77;;;17.20;51.50;;;;;;5044813;28;20134;-63
2021/12/11 10:16:30;;;;;;;26.00;13.55;;;17.20;51.70;;;;;;5044003;28;20029;-65
2021/12/11 10:18:56;;;;;;;24.02;13.85;;;17.10;51.80;;;;;;5044500;28;20036;-63
2021/12/11 10:21:25;;;;;;;25.10;12.55;;;17.10;51.70;;;;;;5044692;28;20471;-65
2021/12/11 10:23:52;;;;;;;29.42;13.60;;;17.10;51.70;;;;;;5044543;28;20053;-64
2021/12/11 10:26:19;;;;;;;22.98;12.48;;;17.10;51.60;;;;;;5042874;28;20044;-65
2021/12/11 10:28:48;;;;;;;21.58;12.10;;;17.10;51.30;;;;;;5043362;28;20029;-63
2021/12/11 10:31:19;;;;;;;23.60;11.93;;;17.10;51.20;;;;;;5042243;28;20040;-64
2021/12/11 10:33:45;;;;;;;20.30;11.23;;;17.10;51.00;;;;;;5030357;28;20162;-65
2021/12/11 10:36:12;;;;;;;19.77;11.23;;;17.10;50.70;;;;;;5044177;28;20029;-65
2021/12/11 10:38:38;;;;;;;19.08;10.93;;;17.10;50.40;;;;;;5043290;28;20114;-65
2021/12/11 10:41:05;;;;;;;16.75;10.75;;;17.20;50.20;;;;;;5043917;28;20029;-64
2021/12/11 10:43:46;;;;;;;15.38;10.65;;;17.10;50.10;;;;;;5043726;28;20044;-64
2021/12/11 10:46:13;;;;;;;19.92;10.73;;;17.10;50.20;;;;;;5043500;28;20092;-63
2021/12/11 10:48:39;;;;;;;17.05;10.73;;;17.10;50.40;;;;;;5043410;28;20036;-61
2021/12/11 10:51:12;;;;;;;19.92;10.40;;;17.10;51.00;;;;;;5043405;28;20396;-64
2021/12/11 10:53:38;;;;;;;17.77;9.90;;;17.10;51.20;;;;;;5043148;28;20497;-65
2021/12/11 10:56:05;;;;;;;21.80;11.38;;;17.10;51.50;;;;;;5044109;28;20078;-62
2021/12/11 10:58:34;;;;;;;14.90;9.05;;;17.10;51.60;;;;;;5044035;28;20037;-64
2021/12/11 11:01:13;;;;;;;16.70;9.10;;;17.10;51.80;;;;;;5043147;28;20033;-66
2021/12/11 11:03:42;;;;;;;18.27;9.57;;;17.10;51.90;;;;;;5042295;28;20087;-62
2021/12/11 11:06:07;;;;;;;18.40;10.00;;;17.10;52.10;;;;;;5042371;28;20041;-64
2021/12/11 11:08:33;;;;;;;12.55;8.93;;;17.10;52.30;;;;;;5042742;28;20035;-63
2021/12/11 11:11:03;;;;;;;14.43;8.80;;;17.10;52.20;;;;;;5041587;28;20029;-60
2021/12/11 11:13:29;;;;;;;12.38;8.40;;;17.10;52.40;;;;;;5044485;23;20100;-64
2021/12/11 11:15:56;;;;;;;12.13;8.75;;;17.10;52.60;;;;;;5002265;28;20025;-64
2021/12/11 11:18:22;;;;;;;13.82;8.70;;;17.10;52.60;;;;;;5003896;28;20044;-65
2021/12/11 11:21:08;;;;;;;12.60;8.77;;;17.20;52.50;;;;;;5004366;28;20026;-66
2021/12/11 11:23:34;;;;;;;11.55;7.47;;;17.10;52.70;;;;;;4988344;28;20031;-65
2021/12/11 11:26:02;;;;;;;18.88;8.68;;;17.10;52.50;;;;;;4983286;28;20507;-66
2021/12/11 11:28:30;;;;;;;13.55;8.07;;;17.10;52.60;;;;;;4983868;28;20153;-65
2021/12/11 11:31:02;;;;;;;11.90;7.55;;;17.20;52.90;;;;;;4984230;28;20491;-65
2021/12/11 11:33:27;;;;;;;13.00;8.55;;;17.20;52.90;;;;;;4983644;28;20419;-63
2021/12/11 11:35:53;;;;;;;12.82;8.05;;;17.20;52.90;;;;;;4984204;28;20030;-64
2021/12/11 11:38:24;;;;;;;11.80;8.70;;;17.20;53.00;;;;;;4984817;28;20392;-64
2021/12/11 11:40:53;;;;;;;16.08;8.98;;;17.20;53.20;;;;;;4985309;28;20041;-63
2021/12/11 11:43:19;;;;;;;14.23;8.70;;;17.20;53.20;;;;;;4984588;28;20034;-64
2021/12/11 11:45:45;;;;;;;11.40;8.55;;;17.20;53.10;;;;;;4984976;28;20034;-66
2021/12/11 11:48:11;;;;;;;11.00;8.18;;;17.20;52.90;;;;;;4985229;28;20423;-65
2021/12/11 11:50:42;;;;;;;11.90;7.35;;;17.20;52.80;;;;;;4984139;28;20033;-66
2021/12/11 11:53:08;;;;;;;13.05;9.13;;;17.20;52.70;;;;;;4982956;28;20527;-64
2021/12/11 11:55:37;;;;;;;11.98;8.52;;;17.20;53.10;;;;;;4983806;28;20117;-64
2021/12/11 11:58:03;;;;;;;12.07;8.80;;;17.30;52.40;;;;;;4984287;28;20036;-68
2021/12/11 12:00:31;;;;;;;11.15;8.63;;;17.30;52.20;;;;;;4985013;28;20034;-65
2021/12/11 12:02:57;;;;;;;16.33;9.05;;;17.30;52.20;;;;;;4987049;28;20023;-64
2021/12/11 12:05:23;;;;;;;13.65;9.30;;;17.30;52.20;;;;;;4987476;28;20036;-64
2021/12/11 12:07:49;;;;;;;12.40;9.00;;;17.40;52.50;;;;;;4988004;28;20061;-62
2021/12/11 12:10:21;;;;;;;15.82;9.80;;;17.40;52.70;;;;;;4987867;28;20038;-63
2021/12/11 12:12:47;;;;;;;16.65;9.73;;;17.40;53.00;;;;;;4986647;28;20169;-62
2021/12/11 12:15:19;;;;;;;15.02;9.90;;;17.40;53.10;;;;;;4990951;28;20125;-62
2021/12/11 12:17:44;;;;;;;18.77;10.35;;;17.40;53.30;;;;;;4991096;28;20042;-64
2021/12/11 12:20:11;;;;;;;16.40;10.20;;;17.40;53.30;;;;;;4990559;28;20026;-64
2021/12/11 12:22:37;;;;;;;14.25;10.18;;;17.40;53.50;;;;;;4991271;28;20077;-61
2021/12/11 12:25:03;;;;;;;16.27;10.57;;;17.40;54.10;;;;;;4991182;28;20031;-63
2021/12/11 12:27:30;;;;;;;22.10;10.73;;;17.40;54.40;;;;;;4988742;28;20022;-63
2021/12/11 12:29:56;;;;;;;21.23;11.00;;;17.40;54.20;;;;;;4988002;28;20054;-63
2021/12/11 12:32:26;;;;;;;17.02;9.95;;;17.40;54.70;;;;;;4988093;28;20054;-63
2021/12/11 12:34:52;;;;;;;18.67;11.30;;;17.40;55.10;;;;;;4987816;28;20387;-65
2021/12/11 12:37:18;;;;;;;19.38;10.25;;;17.40;55.00;;;;;;4988768;28;20034;-65
2021/12/11 12:39:45;;;;;;;16.17;10.73;;;17.40;55.20;;;;;;4987657;28;20082;-65
2021/12/11 12:42:32;;;;;;;17.73;11.73;;;17.30;55.10;;;;;;4988542;28;20053;-67
2021/12/11 12:45:06;;;;;;;17.55;11.32;;;17.30;55.00;;;;;;4988006;28;20033;-64
2021/12/11 12:47:35;;;;;;;18.45;11.13;;;17.30;54.90;;;;;;4981446;28;20042;-65
2021/12/11 12:50:05;;;;;;;18.48;10.15;;;17.30;55.00;;;;;;4986371;28;20043;-65
2021/12/11 12:52:35;;;;;;;18.23;11.02;;;17.30;55.40;;;;;;4981547;28;20030;-65
2021/12/11 12:55:10;;;;;;;18.27;11.75;;;17.20;55.40;;;;;;4986226;28;20121;-67
2021/12/11 12:57:39;;;;;;;18.60;10.63;;;17.20;55.50;;;;;;4993646;28;20030;-66
2021/12/11 13:00:26;;;;;;;18.02;12.10;;;17.20;55.30;;;;;;4987649;28;20030;-64
2021/12/11 13:02:54;;;;;;;19.35;12.23;;;17.20;55.80;;;;;;4991810;28;20351;-66
2021/12/11 13:05:28;;;;;;;21.63;12.45;;;17.20;55.10;;;;;;4979564;28;20023;-65